sensor_id;sensor_type;location;lat;lon;timestamp;pressure;altitude;pressure_sealevel;temperature;humidity
74615;BME280;63121;51.458;-0.110;2023-02-03T00:00:25;102719.75;;;11.06;69.54
74615;BME280;63121;51.458;-0.110;2023-02-03T00:02:53;102720.25;;;11.32;68.67
74615;BME280;63121;51.458;-0.110;2023-02-03T00:05:18;102716.38;;;11.10;69.49
74615;BME280;63121;51.458;-0.110;2023-02-03T00:07:44;102722.38;;;11.08;70.29
74615;BME280;63121;51.458;-0.110;2023-02-03T00:10:13;102720.13;;;11.25;69.70
74615;BME280;63121;51.458;-0.110;2023-02-03T00:12:39;102736.25;;;11.11;69.69
74615;BME280;63121;51.458;-0.110;2023-02-03T00:15:05;102739.53;;;11.04;70.00
74615;BME280;63121;51.458;-0.110;2023-02-03T00:17:31;102739.03;;;11.22;69.51
74615;BME280;63121;51.458;-0.110;2023-02-03T00:19:56;102746.00;;;11.28;69.66
74615;BME280;63121;51.458;-0.110;2023-02-03T00:22:21;102743.94;;;11.57;68.32
74615;BME280;63121;51.458;-0.110;2023-02-03T00:24:47;102731.44;;;11.31;69.43
74615;BME280;63121;51.458;-0.110;2023-02-03T00:27:13;102735.97;;;11.43;69.08
74615;BME280;63121;51.458;-0.110;2023-02-03T00:29:38;102739.03;;;11.71;68.36
74615;BME280;63121;51.458;-0.110;2023-02-03T00:32:04;102755.25;;;11.13;69.82
74615;BME280;63121;51.458;-0.110;2023-02-03T00:34:30;102741.13;;;11.45;69.04
74615;BME280;63121;51.458;-0.110;2023-02-03T00:36:55;102743.72;;;11.43;69.71
74615;BME280;63121;51.458;-0.110;2023-02-03T00:39:21;102738.78;;;11.55;69.13
74615;BME280;63121;51.458;-0.110;2023-02-03T00:41:46;102743.88;;;11.52;68.63
74615;BME280;63121;51.458;-0.110;2023-02-03T00:44:13;102742.06;;;11.97;67.61
74615;BME280;63121;51.458;-0.110;2023-02-03T00:46:39;102750.66;;;11.94;67.48
74615;BME280;63121;51.458;-0.110;2023-02-03T00:49:04;102739.66;;;12.09;67.19
74615;BME280;63121;51.458;-0.110;2023-02-03T00:51:30;102728.84;;;11.82;68.11
74615;BME280;63121;51.458;-0.110;2023-02-03T00:53:56;102718.56;;;11.36;69.46
74615;BME280;63121;51.458;-0.110;2023-02-03T00:56:21;102702.09;;;11.81;67.88
74615;BME280;63121;51.458;-0.110;2023-02-03T00:58:46;102704.59;;;12.31;65.89
74615;BME280;63121;51.458;-0.110;2023-02-03T01:01:12;102697.81;;;11.83;67.97
74615;BME280;63121;51.458;-0.110;2023-02-03T01:03:37;102694.66;;;12.01;66.69
74615;BME280;63121;51.458;-0.110;2023-02-03T01:06:16;102702.50;;;12.06;66.78
74615;BME280;63121;51.458;-0.110;2023-02-03T01:08:42;102698.09;;;11.98;67.03
74615;BME280;63121;51.458;-0.110;2023-02-03T01:11:12;102700.25;;;12.30;65.81
74615;BME280;63121;51.458;-0.110;2023-02-03T01:13:39;102718.38;;;12.30;65.99
74615;BME280;63121;51.458;-0.110;2023-02-03T01:16:08;102706.75;;;12.66;64.66
74615;BME280;63121;51.458;-0.110;2023-02-03T01:18:34;102707.34;;;12.45;64.97
74615;BME280;63121;51.458;-0.110;2023-02-03T01:21:14;102704.34;;;12.13;66.04
74615;BME280;63121;51.458;-0.110;2023-02-03T01:23:40;102710.56;;;12.26;66.11
74615;BME280;63121;51.458;-0.110;2023-02-03T01:26:12;102704.59;;;12.33;65.84
74615;BME280;63121;51.458;-0.110;2023-02-03T01:28:38;102699.44;;;12.31;65.97
74615;BME280;63121;51.458;-0.110;2023-02-03T01:31:15;102700.84;;;12.11;66.12
74615;BME280;63121;51.458;-0.110;2023-02-03T01:33:41;102702.84;;;12.30;65.58
74615;BME280;63121;51.458;-0.110;2023-02-03T01:36:10;102701.00;;;12.22;65.90
74615;BME280;63121;51.458;-0.110;2023-02-03T01:38:37;102702.88;;;12.32;65.81
74615;BME280;63121;51.458;-0.110;2023-02-03T01:41:04;102707.75;;;12.10;66.35
74615;BME280;63121;51.458;-0.110;2023-02-03T01:43:31;102699.81;;;11.98;67.32
74615;BME280;63121;51.458;-0.110;2023-02-03T01:45:58;102691.53;;;12.24;66.79
74615;BME280;63121;51.458;-0.110;2023-02-03T01:48:25;102700.84;;;12.11;66.59
74615;BME280;63121;51.458;-0.110;2023-02-03T01:50:51;102699.72;;;11.92;67.48
74615;BME280;63121;51.458;-0.110;2023-02-03T01:53:16;102706.91;;;12.11;66.94
74615;BME280;63121;51.458;-0.110;2023-02-03T01:55:46;102694.66;;;11.99;67.07
74615;BME280;63121;51.458;-0.110;2023-02-03T01:58:19;102700.06;;;12.15;66.58
74615;BME280;63121;51.458;-0.110;2023-02-03T02:00:46;102701.56;;;12.00;67.64
74615;BME280;63121;51.458;-0.110;2023-02-03T02:03:13;102695.13;;;12.33;66.47
74615;BME280;63121;51.458;-0.110;2023-02-03T02:05:52;102704.78;;;12.45;65.80
74615;BME280;63121;51.458;-0.110;2023-02-03T02:08:21;102707.03;;;12.22;66.84
74615;BME280;63121;51.458;-0.110;2023-02-03T02:10:48;102700.22;;;12.27;66.70
74615;BME280;63121;51.458;-0.110;2023-02-03T02:13:14;102697.88;;;12.46;65.82
74615;BME280;63121;51.458;-0.110;2023-02-03T02:18:15;102679.00;;;12.54;65.90
74615;BME280;63121;51.458;-0.110;2023-02-03T02:29:16;102674.81;;;12.69;65.53
74615;BME280;63121;51.458;-0.110;2023-02-03T02:32:02;102666.94;;;12.58;65.90
74615;BME280;63121;51.458;-0.110;2023-02-03T02:40:52;102694.63;;;12.62;66.21
74615;BME280;63121;51.458;-0.110;2023-02-03T02:43:41;102702.38;;;12.60;65.96
74615;BME280;63121;51.458;-0.110;2023-02-03T02:46:18;102708.13;;;12.39;67.00
74615;BME280;63121;51.458;-0.110;2023-02-03T02:48:56;102711.69;;;12.45;66.43
74615;BME280;63121;51.458;-0.110;2023-02-03T02:51:23;102712.81;;;12.65;65.98
74615;BME280;63121;51.458;-0.110;2023-02-03T02:53:53;102716.22;;;12.63;65.99
74615;BME280;63121;51.458;-0.110;2023-02-03T02:56:20;102719.25;;;12.31;67.16
74615;BME280;63121;51.458;-0.110;2023-02-03T02:58:48;102709.19;;;12.52;66.56
74615;BME280;63121;51.458;-0.110;2023-02-03T03:01:15;102715.06;;;12.40;66.68
74615;BME280;63121;51.458;-0.110;2023-02-03T03:03:41;102723.28;;;12.10;67.70
74615;BME280;63121;51.458;-0.110;2023-02-03T03:06:26;102720.78;;;12.18;67.25
74615;BME280;63121;51.458;-0.110;2023-02-03T03:08:56;102726.44;;;12.50;66.77
74615;BME280;63121;51.458;-0.110;2023-02-03T03:11:25;102736.00;;;11.96;67.82
74615;BME280;63121;51.458;-0.110;2023-02-03T03:13:54;102730.97;;;12.68;65.98
74615;BME280;63121;51.458;-0.110;2023-02-03T03:16:23;102737.94;;;12.10;67.38
74615;BME280;63121;51.458;-0.110;2023-02-03T03:18:59;102732.22;;;12.32;67.12
74615;BME280;63121;51.458;-0.110;2023-02-03T03:21:33;102722.50;;;12.14;67.46
74615;BME280;63121;51.458;-0.110;2023-02-03T03:24:06;102722.59;;;12.22;67.11
74615;BME280;63121;51.458;-0.110;2023-02-03T03:26:41;102726.97;;;12.26;67.00
74615;BME280;63121;51.458;-0.110;2023-02-03T03:29:14;102706.31;;;12.29;66.93
74615;BME280;63121;51.458;-0.110;2023-02-03T03:31:42;102706.38;;;12.35;66.69
74615;BME280;63121;51.458;-0.110;2023-02-03T03:34:09;102705.44;;;12.30;66.89
74615;BME280;63121;51.458;-0.110;2023-02-03T03:42:09;102708.75;;;12.20;67.76
74615;BME280;63121;51.458;-0.110;2023-02-03T03:44:44;102713.81;;;11.59;69.48
74615;BME280;63121;51.458;-0.110;2023-02-03T03:47:25;102713.91;;;12.18;67.33
74615;BME280;63121;51.458;-0.110;2023-02-03T03:49:53;102701.78;;;12.14;67.30
74615;BME280;63121;51.458;-0.110;2023-02-03T03:52:24;102703.28;;;12.00;67.88
74615;BME280;63121;51.458;-0.110;2023-02-03T03:54:52;102698.88;;;11.94;67.86
74615;BME280;63121;51.458;-0.110;2023-02-03T03:57:29;102694.44;;;11.87;68.47
74615;BME280;63121;51.458;-0.110;2023-02-03T03:59:58;102698.63;;;11.79;68.66
74615;BME280;63121;51.458;-0.110;2023-02-03T04:02:24;102705.31;;;11.68;69.12
74615;BME280;63121;51.458;-0.110;2023-02-03T04:04:50;102713.19;;;11.74;68.41
74615;BME280;63121;51.458;-0.110;2023-02-03T04:07:18;102703.81;;;11.79;68.65
74615;BME280;63121;51.458;-0.110;2023-02-03T04:09:44;102715.53;;;11.58;69.14
74615;BME280;63121;51.458;-0.110;2023-02-03T04:12:21;102706.88;;;11.56;69.21
74615;BME280;63121;51.458;-0.110;2023-02-03T04:14:47;102710.31;;;11.55;69.20
74615;BME280;63121;51.458;-0.110;2023-02-03T04:17:13;102709.09;;;11.35;69.75
74615;BME280;63121;51.458;-0.110;2023-02-03T04:19:38;102705.22;;;11.60;68.90
74615;BME280;63121;51.458;-0.110;2023-02-03T04:22:03;102708.84;;;11.21;70.35
74615;BME280;63121;51.458;-0.110;2023-02-03T04:24:29;102710.28;;;11.54;69.38
74615;BME280;63121;51.458;-0.110;2023-02-03T04:26:54;102713.81;;;11.57;68.85
74615;BME280;63121;51.458;-0.110;2023-02-03T04:29:19;102709.44;;;11.53;69.41
74615;BME280;63121;51.458;-0.110;2023-02-03T04:31:45;102702.31;;;11.42;69.31
74615;BME280;63121;51.458;-0.110;2023-02-03T04:34:10;102707.47;;;11.42;69.85
74615;BME280;63121;51.458;-0.110;2023-02-03T04:36:35;102708.41;;;11.45;69.15
74615;BME280;63121;51.458;-0.110;2023-02-03T04:39:01;102711.03;;;11.48;69.36
74615;BME280;63121;51.458;-0.110;2023-02-03T04:41:26;102710.94;;;11.41;69.11
74615;BME280;63121;51.458;-0.110;2023-02-03T04:43:52;102722.41;;;11.56;68.78
74615;BME280;63121;51.458;-0.110;2023-02-03T04:46:17;102723.22;;;11.54;69.06
74615;BME280;63121;51.458;-0.110;2023-02-03T04:48:43;102732.56;;;11.46;68.82
74615;BME280;63121;51.458;-0.110;2023-02-03T04:51:08;102737.69;;;11.44;68.84
74615;BME280;63121;51.458;-0.110;2023-02-03T04:53:34;102733.81;;;11.21;69.77
74615;BME280;63121;51.458;-0.110;2023-02-03T04:55:59;102729.66;;;11.29;69.83
74615;BME280;63121;51.458;-0.110;2023-02-03T04:58:25;102729.84;;;11.39;69.63
74615;BME280;63121;51.458;-0.110;2023-02-03T05:00:51;102729.94;;;11.44;69.43
74615;BME280;63121;51.458;-0.110;2023-02-03T05:03:17;102725.69;;;11.48;68.94
74615;BME280;63121;51.458;-0.110;2023-02-03T05:05:42;102738.25;;;11.78;68.06
74615;BME280;63121;51.458;-0.110;2023-02-03T05:08:08;102741.13;;;11.92;67.89
74615;BME280;63121;51.458;-0.110;2023-02-03T05:10:33;102763.44;;;11.38;68.90
74615;BME280;63121;51.458;-0.110;2023-02-03T05:12:58;102762.31;;;11.71;68.22
74615;BME280;63121;51.458;-0.110;2023-02-03T05:15:24;102757.88;;;11.16;69.63
74615;BME280;63121;51.458;-0.110;2023-02-03T05:17:55;102757.09;;;11.21;69.59
74615;BME280;63121;51.458;-0.110;2023-02-03T05:20:21;102759.03;;;11.32;69.67
74615;BME280;63121;51.458;-0.110;2023-02-03T05:22:46;102742.75;;;11.36;69.25
74615;BME280;63121;51.458;-0.110;2023-02-03T05:25:12;102746.88;;;11.77;67.59
74615;BME280;63121;51.458;-0.110;2023-02-03T05:27:38;102751.25;;;11.31;69.02
74615;BME280;63121;51.458;-0.110;2023-02-03T05:30:04;102760.69;;;11.29;69.26
74615;BME280;63121;51.458;-0.110;2023-02-03T05:32:30;102765.81;;;11.76;68.17
74615;BME280;63121;51.458;-0.110;2023-02-03T05:34:55;102777.34;;;11.43;68.52
74615;BME280;63121;51.458;-0.110;2023-02-03T05:37:21;102767.34;;;11.63;68.38
74615;BME280;63121;51.458;-0.110;2023-02-03T05:39:46;102779.97;;;11.46;69.02
74615;BME280;63121;51.458;-0.110;2023-02-03T05:42:11;102776.41;;;11.39;69.18
74615;BME280;63121;51.458;-0.110;2023-02-03T05:44:37;102780.94;;;11.51;68.65
74615;BME280;63121;51.458;-0.110;2023-02-03T05:47:02;102792.50;;;11.25;69.38
74615;BME280;63121;51.458;-0.110;2023-02-03T05:49:27;102784.59;;;11.63;67.92
74615;BME280;63121;51.458;-0.110;2023-02-03T05:51:54;102788.38;;;11.36;68.75
74615;BME280;63121;51.458;-0.110;2023-02-03T05:54:19;102794.06;;;11.16;69.59
74615;BME280;63121;51.458;-0.110;2023-02-03T05:56:45;102783.03;;;11.72;68.25
74615;BME280;63121;51.458;-0.110;2023-02-03T05:59:10;102796.34;;;11.45;69.14
74615;BME280;63121;51.458;-0.110;2023-02-03T06:01:36;102778.72;;;11.73;68.49
74615;BME280;63121;51.458;-0.110;2023-02-03T06:04:03;102781.84;;;11.53;68.21
74615;BME280;63121;51.458;-0.110;2023-02-03T06:06:29;102782.94;;;11.21;69.91
74615;BME280;63121;51.458;-0.110;2023-02-03T06:08:59;102775.09;;;11.63;68.49
74615;BME280;63121;51.458;-0.110;2023-02-03T06:11:25;102777.06;;;11.76;68.42
74615;BME280;63121;51.458;-0.110;2023-02-03T06:13:50;102786.69;;;11.36;69.72
74615;BME280;63121;51.458;-0.110;2023-02-03T06:16:16;102800.69;;;11.93;67.77
74615;BME280;63121;51.458;-0.110;2023-02-03T06:18:41;102801.03;;;11.66;68.01
74615;BME280;63121;51.458;-0.110;2023-02-03T06:21:07;102800.38;;;11.76;68.31
74615;BME280;63121;51.458;-0.110;2023-02-03T06:23:32;102804.34;;;11.57;69.09
74615;BME280;63121;51.458;-0.110;2023-02-03T06:25:58;102799.25;;;11.62;68.60
74615;BME280;63121;51.458;-0.110;2023-02-03T06:28:26;102804.38;;;11.60;68.74
74615;BME280;63121;51.458;-0.110;2023-02-03T06:30:51;102804.06;;;11.44;69.34
74615;BME280;63121;51.458;-0.110;2023-02-03T06:33:19;102795.88;;;11.68;68.56
74615;BME280;63121;51.458;-0.110;2023-02-03T06:35:44;102790.72;;;11.69;68.43
74615;BME280;63121;51.458;-0.110;2023-02-03T06:38:10;102797.09;;;11.39;69.58
74615;BME280;63121;51.458;-0.110;2023-02-03T06:40:35;102791.13;;;11.44;69.67
74615;BME280;63121;51.458;-0.110;2023-02-03T06:43:01;102786.34;;;11.65;68.97
74615;BME280;63121;51.458;-0.110;2023-02-03T06:45:26;102790.94;;;11.33;70.04
74615;BME280;63121;51.458;-0.110;2023-02-03T06:47:51;102795.81;;;11.17;70.61
74615;BME280;63121;51.458;-0.110;2023-02-03T06:50:17;102803.13;;;11.38;69.60
74615;BME280;63121;51.458;-0.110;2023-02-03T06:52:43;102804.25;;;11.54;69.41
74615;BME280;63121;51.458;-0.110;2023-02-03T06:55:08;102814.25;;;11.36;69.89
74615;BME280;63121;51.458;-0.110;2023-02-03T06:57:34;102808.66;;;11.58;69.20
74615;BME280;63121;51.458;-0.110;2023-02-03T07:00:00;102809.28;;;11.45;69.20
74615;BME280;63121;51.458;-0.110;2023-02-03T07:02:25;102821.22;;;11.38;69.77
74615;BME280;63121;51.458;-0.110;2023-02-03T07:04:50;102823.44;;;11.66;69.03
74615;BME280;63121;51.458;-0.110;2023-02-03T07:07:16;102826.47;;;11.43;69.85
74615;BME280;63121;51.458;-0.110;2023-02-03T07:09:41;102824.25;;;11.62;68.75
74615;BME280;63121;51.458;-0.110;2023-02-03T07:12:07;102830.50;;;11.29;70.16
74615;BME280;63121;51.458;-0.110;2023-02-03T07:14:33;102834.16;;;11.40;69.94
74615;BME280;63121;51.458;-0.110;2023-02-03T07:17:04;102841.91;;;11.40;69.79
74615;BME280;63121;51.458;-0.110;2023-02-03T07:19:29;102843.59;;;11.36;69.52
74615;BME280;63121;51.458;-0.110;2023-02-03T07:21:55;102847.13;;;11.42;69.18
74615;BME280;63121;51.458;-0.110;2023-02-03T07:24:20;102839.91;;;11.71;68.95
74615;BME280;63121;51.458;-0.110;2023-02-03T07:26:46;102845.13;;;11.72;68.13
74615;BME280;63121;51.458;-0.110;2023-02-03T07:29:11;102851.72;;;11.56;69.15
74615;BME280;63121;51.458;-0.110;2023-02-03T07:31:37;102849.91;;;11.52;69.32
74615;BME280;63121;51.458;-0.110;2023-02-03T07:34:03;102843.06;;;11.54;68.84
74615;BME280;63121;51.458;-0.110;2023-02-03T07:36:29;102846.31;;;11.44;69.07
74615;BME280;63121;51.458;-0.110;2023-02-03T07:38:54;102856.44;;;11.77;68.68
74615;BME280;63121;51.458;-0.110;2023-02-03T07:41:20;102865.50;;;11.55;69.02
74615;BME280;63121;51.458;-0.110;2023-02-03T07:43:45;102852.31;;;11.42;69.39
74615;BME280;63121;51.458;-0.110;2023-02-03T07:46:11;102857.09;;;11.23;70.42
74615;BME280;63121;51.458;-0.110;2023-02-03T07:48:36;102855.56;;;11.33;69.80
74615;BME280;63121;51.458;-0.110;2023-02-03T07:51:01;102859.59;;;11.18;70.58
74615;BME280;63121;51.458;-0.110;2023-02-03T07:53:27;102858.28;;;11.39;69.65
74615;BME280;63121;51.458;-0.110;2023-02-03T07:55:52;102856.56;;;11.39;70.04
74615;BME280;63121;51.458;-0.110;2023-02-03T07:58:17;102859.44;;;11.12;70.98
74615;BME280;63121;51.458;-0.110;2023-02-03T08:00:43;102861.44;;;11.26;70.29
74615;BME280;63121;51.458;-0.110;2023-02-03T08:03:08;102860.47;;;11.63;68.96
74615;BME280;63121;51.458;-0.110;2023-02-03T08:05:33;102857.78;;;11.58;69.46
74615;BME280;63121;51.458;-0.110;2023-02-03T08:07:59;102859.19;;;11.41;69.67
74615;BME280;63121;51.458;-0.110;2023-02-03T08:10:24;102856.91;;;11.56;69.62
74615;BME280;63121;51.458;-0.110;2023-02-03T08:12:53;102862.06;;;11.56;69.62
74615;BME280;63121;51.458;-0.110;2023-02-03T08:15:19;102858.53;;;11.51;69.69
74615;BME280;63121;51.458;-0.110;2023-02-03T08:17:48;102856.13;;;11.60;68.99
74615;BME280;63121;51.458;-0.110;2023-02-03T08:20:14;102859.78;;;11.73;69.16
74615;BME280;63121;51.458;-0.110;2023-02-03T08:22:41;102862.88;;;11.54;69.56
74615;BME280;63121;51.458;-0.110;2023-02-03T08:25:07;102865.16;;;11.84;68.31
74615;BME280;63121;51.458;-0.110;2023-02-03T08:27:32;102872.38;;;11.53;69.82
74615;BME280;63121;51.458;-0.110;2023-02-03T08:29:58;102872.66;;;11.69;69.08
74615;BME280;63121;51.458;-0.110;2023-02-03T08:32:24;102875.31;;;11.73;68.85
74615;BME280;63121;51.458;-0.110;2023-02-03T08:34:50;102879.44;;;11.64;69.23
74615;BME280;63121;51.458;-0.110;2023-02-03T08:37:18;102892.06;;;11.89;68.61
74615;BME280;63121;51.458;-0.110;2023-02-03T08:39:45;102889.84;;;12.11;68.11
74615;BME280;63121;51.458;-0.110;2023-02-03T08:42:10;102901.03;;;12.08;68.04
74615;BME280;63121;51.458;-0.110;2023-02-03T08:44:36;102900.00;;;12.02;67.89
74615;BME280;63121;51.458;-0.110;2023-02-03T08:47:05;102906.75;;;11.92;68.73
74615;BME280;63121;51.458;-0.110;2023-02-03T08:49:31;102908.59;;;11.97;68.66
74615;BME280;63121;51.458;-0.110;2023-02-03T08:51:57;102905.38;;;12.11;67.72
74615;BME280;63121;51.458;-0.110;2023-02-03T08:54:23;102912.69;;;12.35;67.48
74615;BME280;63121;51.458;-0.110;2023-02-03T08:56:49;102911.97;;;12.44;67.30
74615;BME280;63121;51.458;-0.110;2023-02-03T08:59:14;102908.41;;;12.35;67.17
74615;BME280;63121;51.458;-0.110;2023-02-03T09:01:40;102895.81;;;12.60;66.87
74615;BME280;63121;51.458;-0.110;2023-02-03T09:04:09;102904.91;;;12.33;67.36
74615;BME280;63121;51.458;-0.110;2023-02-03T09:06:35;102908.94;;;12.17;67.37
74615;BME280;63121;51.458;-0.110;2023-02-03T09:09:00;102911.13;;;12.45;66.73
74615;BME280;63121;51.458;-0.110;2023-02-03T09:11:26;102919.38;;;12.74;66.16
74615;BME280;63121;51.458;-0.110;2023-02-03T09:13:51;102919.16;;;12.10;67.91
74615;BME280;63121;51.458;-0.110;2023-02-03T09:16:18;102932.88;;;12.04;68.30
74615;BME280;63121;51.458;-0.110;2023-02-03T09:18:44;102927.97;;;12.19;67.59
74615;BME280;63121;51.458;-0.110;2023-02-03T09:21:11;102933.00;;;12.62;66.51
74615;BME280;63121;51.458;-0.110;2023-02-03T09:23:37;102941.00;;;12.24;68.09
74615;BME280;63121;51.458;-0.110;2023-02-03T09:26:03;102933.22;;;12.24;67.87
74615;BME280;63121;51.458;-0.110;2023-02-03T09:28:29;102934.72;;;12.61;66.43
74615;BME280;63121;51.458;-0.110;2023-02-03T09:31:01;102933.06;;;12.65;66.41
74615;BME280;63121;51.458;-0.110;2023-02-03T09:33:28;102937.72;;;12.34;67.21
74615;BME280;63121;51.458;-0.110;2023-02-03T09:35:54;102944.81;;;12.45;67.27
74615;BME280;63121;51.458;-0.110;2023-02-03T09:38:21;102948.41;;;12.53;66.35
74615;BME280;63121;51.458;-0.110;2023-02-03T09:40:59;102952.09;;;12.67;65.92
74615;BME280;63121;51.458;-0.110;2023-02-03T09:45:51;102942.88;;;12.33;66.98
74615;BME280;63121;51.458;-0.110;2023-02-03T09:48:23;102932.97;;;12.59;66.27
74615;BME280;63121;51.458;-0.110;2023-02-03T09:50:51;102951.53;;;12.35;67.01
74615;BME280;63121;51.458;-0.110;2023-02-03T09:53:26;102954.53;;;12.09;68.22
74615;BME280;63121;51.458;-0.110;2023-02-03T09:55:56;102954.94;;;12.84;65.67
74615;BME280;63121;51.458;-0.110;2023-02-03T09:58:32;102966.88;;;12.74;65.98
74615;BME280;63121;51.458;-0.110;2023-02-03T10:01:00;102977.50;;;12.91;65.36
74615;BME280;63121;51.458;-0.110;2023-02-03T10:03:38;102988.88;;;12.46;66.60
74615;BME280;63121;51.458;-0.110;2023-02-03T10:06:35;102997.97;;;12.24;67.38
74615;BME280;63121;51.458;-0.110;2023-02-03T10:11:53;103011.59;;;13.16;64.17
74615;BME280;63121;51.458;-0.110;2023-02-03T10:14:37;103020.75;;;12.94;64.47
74615;BME280;63121;51.458;-0.110;2023-02-03T10:17:24;103034.41;;;12.82;65.04
74615;BME280;63121;51.458;-0.110;2023-02-03T10:20:03;103033.38;;;13.27;64.09
74615;BME280;63121;51.458;-0.110;2023-02-03T10:22:33;103032.63;;;13.33;63.58
74615;BME280;63121;51.458;-0.110;2023-02-03T10:25:04;103025.31;;;13.09;64.76
74615;BME280;63121;51.458;-0.110;2023-02-03T10:27:32;103027.84;;;13.63;62.96
74615;BME280;63121;51.458;-0.110;2023-02-03T10:30:20;103028.19;;;13.91;61.71
74615;BME280;63121;51.458;-0.110;2023-02-03T10:32:50;103025.88;;;13.44;63.21
74615;BME280;63121;51.458;-0.110;2023-02-03T10:35:17;103027.88;;;13.06;64.01
74615;BME280;63121;51.458;-0.110;2023-02-03T10:37:44;103024.31;;;13.57;62.86
74615;BME280;63121;51.458;-0.110;2023-02-03T10:40:13;103020.19;;;13.71;62.23
74615;BME280;63121;51.458;-0.110;2023-02-03T10:42:41;103026.44;;;13.87;61.61
74615;BME280;63121;51.458;-0.110;2023-02-03T10:45:36;103027.09;;;13.72;61.84
74615;BME280;63121;51.458;-0.110;2023-02-03T10:48:02;103036.59;;;13.70;61.83
74615;BME280;63121;51.458;-0.110;2023-02-03T10:50:29;103030.59;;;13.73;61.78
74615;BME280;63121;51.458;-0.110;2023-02-03T10:55:46;103039.56;;;13.98;60.88
74615;BME280;63121;51.458;-0.110;2023-02-03T10:58:21;103037.72;;;13.91;61.25
74615;BME280;63121;51.458;-0.110;2023-02-03T11:00:56;103042.63;;;13.68;61.78
74615;BME280;63121;51.458;-0.110;2023-02-03T11:03:25;103043.16;;;14.12;60.48
74615;BME280;63121;51.458;-0.110;2023-02-03T11:08:37;103048.09;;;13.91;61.11
74615;BME280;63121;51.458;-0.110;2023-02-03T11:11:07;103036.59;;;13.69;61.47
74615;BME280;63121;51.458;-0.110;2023-02-03T11:13:32;103039.63;;;14.04;60.31
74615;BME280;63121;51.458;-0.110;2023-02-03T11:18:36;103049.19;;;14.07;60.46
74615;BME280;63121;51.458;-0.110;2023-02-03T11:21:15;103039.25;;;13.73;61.35
74615;BME280;63121;51.458;-0.110;2023-02-03T11:26:27;103049.94;;;13.99;60.89
74615;BME280;63121;51.458;-0.110;2023-02-03T11:28:57;103049.56;;;14.43;59.19
74615;BME280;63121;51.458;-0.110;2023-02-03T11:31:29;103057.94;;;14.15;60.02
74615;BME280;63121;51.458;-0.110;2023-02-03T11:34:01;103045.97;;;14.31;59.65
74615;BME280;63121;51.458;-0.110;2023-02-03T11:36:29;103043.50;;;14.41;59.36
74615;BME280;63121;51.458;-0.110;2023-02-03T11:39:17;103046.81;;;14.28;59.76
74615;BME280;63121;51.458;-0.110;2023-02-03T11:41:43;103038.47;;;14.58;58.99
74615;BME280;63121;51.458;-0.110;2023-02-03T11:44:11;103055.81;;;14.58;59.08
74615;BME280;63121;51.458;-0.110;2023-02-03T11:46:37;103053.59;;;14.15;60.23
74615;BME280;63121;51.458;-0.110;2023-02-03T11:51:37;103050.25;;;14.27;59.92
74615;BME280;63121;51.458;-0.110;2023-02-03T11:54:27;103043.56;;;14.49;58.93
74615;BME280;63121;51.458;-0.110;2023-02-03T11:59:27;103039.09;;;14.37;59.09
74615;BME280;63121;51.458;-0.110;2023-02-03T12:10:13;103043.09;;;14.90;57.68
74615;BME280;63121;51.458;-0.110;2023-02-03T12:12:55;103046.84;;;15.24;56.62
74615;BME280;63121;51.458;-0.110;2023-02-03T12:21:16;103028.00;;;15.70;55.65
74615;BME280;63121;51.458;-0.110;2023-02-03T12:24:03;103034.38;;;14.80;57.81
74615;BME280;63121;51.458;-0.110;2023-02-03T12:29:46;103051.06;;;15.09;57.06
74615;BME280;63121;51.458;-0.110;2023-02-03T12:32:32;103044.94;;;15.05;57.29
74615;BME280;63121;51.458;-0.110;2023-02-03T12:35:10;103046.59;;;14.91;57.56
74615;BME280;63121;51.458;-0.110;2023-02-03T12:37:46;103047.94;;;14.53;58.08
74615;BME280;63121;51.458;-0.110;2023-02-03T12:40:42;103043.19;;;15.02;57.20
74615;BME280;63121;51.458;-0.110;2023-02-03T12:46:00;103042.16;;;14.80;57.98
74615;BME280;63121;51.458;-0.110;2023-02-03T12:56:53;103042.97;;;14.75;57.86
74615;BME280;63121;51.458;-0.110;2023-02-03T12:59:22;103041.13;;;14.63;58.60
74615;BME280;63121;51.458;-0.110;2023-02-03T13:01:53;103037.31;;;15.30;56.42
74615;BME280;63121;51.458;-0.110;2023-02-03T13:04:37;103037.13;;;15.00;57.30
74615;BME280;63121;51.458;-0.110;2023-02-03T13:07:20;103050.94;;;14.96;57.66
74615;BME280;63121;51.458;-0.110;2023-02-03T13:09:54;103043.81;;;14.72;58.46
74615;BME280;63121;51.458;-0.110;2023-02-03T13:12:29;103043.78;;;14.68;58.23
74615;BME280;63121;51.458;-0.110;2023-02-03T13:15:50;103047.50;;;14.97;57.88
74615;BME280;63121;51.458;-0.110;2023-02-03T13:20:36;103038.50;;;15.78;55.90
74615;BME280;63121;51.458;-0.110;2023-02-03T13:23:06;103038.34;;;15.58;56.03
74615;BME280;63121;51.458;-0.110;2023-02-03T13:28:46;103044.47;;;15.66;56.00
74615;BME280;63121;51.458;-0.110;2023-02-03T13:31:34;103034.94;;;15.70;55.91
74615;BME280;63121;51.458;-0.110;2023-02-03T13:34:35;103041.06;;;15.72;55.51
74615;BME280;63121;51.458;-0.110;2023-02-03T13:42:37;103033.19;;;15.65;55.45
74615;BME280;63121;51.458;-0.110;2023-02-03T13:45:13;103045.28;;;15.53;56.01
74615;BME280;63121;51.458;-0.110;2023-02-03T13:47:45;103039.91;;;15.25;57.03
74615;BME280;63121;51.458;-0.110;2023-02-03T13:50:27;103041.56;;;15.15;57.24
74615;BME280;63121;51.458;-0.110;2023-02-03T13:55:29;103034.75;;;15.39;56.76
74615;BME280;63121;51.458;-0.110;2023-02-03T13:57:55;103032.09;;;15.25;57.13
74615;BME280;63121;51.458;-0.110;2023-02-03T14:03:16;103034.66;;;15.19;57.50
74615;BME280;63121;51.458;-0.110;2023-02-03T14:05:46;103030.50;;;15.45;56.52
74615;BME280;63121;51.458;-0.110;2023-02-03T14:16:49;103039.91;;;15.30;57.06
74615;BME280;63121;51.458;-0.110;2023-02-03T14:21:53;103034.69;;;15.25;57.20
74615;BME280;63121;51.458;-0.110;2023-02-03T14:24:20;103028.66;;;15.29;57.15
74615;BME280;63121;51.458;-0.110;2023-02-03T14:26:49;103027.22;;;15.83;56.00
74615;BME280;63121;51.458;-0.110;2023-02-03T14:29:27;103041.00;;;15.62;56.55